sensor_id;sensor_type;location;lat;lon;timestamp;P1;P2;P0
72918;PMS7003;68407;55.694;26.994;2023-08-31T00:01:10;6.8;5.3;3.8
72918;PMS7003;68407;55.694;26.994;2023-08-31T00:06:20;5.8;5;3.8
72918;PMS7003;68407;55.694;26.994;2023-08-31T00:10:42;5.6;5;3.8
72918;PMS7003;68407;55.694;26.994;2023-08-31T00:16:00;6.2;5.2;4.2
72918;PMS7003;68407;55.694;26.994;2023-08-31T00:20:38;6;4.8;3.8
72918;PMS7003;68407;55.694;26.994;2023-08-31T00:26:02;7;5.4;4.2
72918;PMS7003;68407;55.694;26.994;2023-08-31T00:31:20;5.8;5;3.4
72918;PMS7003;68407;55.694;26.994;2023-08-31T00:35:54;6;5.2;4.6
72918;PMS7003;68407;55.694;26.994;2023-08-31T00:40:50;7.2;6.2;4.6
72918;PMS7003;68407;55.694;26.994;2023-08-31T00:46:14;7.2;6.2;4.2
72918;PMS7003;68407;55.694;26.994;2023-08-31T00:51:12;7.4;5.6;4.2
72918;PMS7003;68407;55.694;26.994;2023-08-31T00:56:20;6.4;6;4.2
72918;PMS7003;68407;55.694;26.994;2023-08-31T01:01:10;6;5.5;4.3
72918;PMS7003;68407;55.694;26.994;2023-08-31T01:06:00;6.6;5.4;3.6
72918;PMS7003;68407;55.694;26.994;2023-08-31T01:10:46;6.8;5.6;3.8
72918;PMS7003;68407;55.694;26.994;2023-08-31T01:15:53;7.8;6.2;4.6
72918;PMS7003;68407;55.694;26.994;2023-08-31T01:21:17;7;6.2;5.2
72918;PMS7003;68407;55.694;26.994;2023-08-31T01:25:44;6.2;4.6;3.2
72918;PMS7003;68407;55.694;26.994;2023-08-31T01:30:50;7.6;5.8;4.8
72918;PMS7003;68407;55.694;26.994;2023-08-31T01:36:00;8.2;6.8;4.6
72918;PMS7003;68407;55.694;26.994;2023-08-31T01:40:48;8;6.6;5.6
72918;PMS7003;68407;55.694;26.994;2023-08-31T01:46:18;11.4;8.4;6.8
72918;PMS7003;68407;55.694;26.994;2023-08-31T01:50:56;9.8;8;6.4
72918;PMS7003;68407;55.694;26.994;2023-08-31T01:55:38;10;9;7.4
72918;PMS7003;68407;55.694;26.994;2023-08-31T02:00:54;9.5;8.8;7
72918;PMS7003;68407;55.694;26.994;2023-08-31T02:06:16;9.4;8.4;6.4
72918;PMS7003;68407;55.694;26.994;2023-08-31T02:11:08;8;7.2;5.2
72918;PMS7003;68407;55.694;26.994;2023-08-31T02:16:08;8.4;6;4.8
72918;PMS7003;68407;55.694;26.994;2023-08-31T02:20:51;8;6.6;5.2
72918;PMS7003;68407;55.694;26.994;2023-08-31T02:26:08;8.2;7;5.2
72918;PMS7003;68407;55.694;26.994;2023-08-31T02:31:18;6.6;5.6;4
72918;PMS7003;68407;55.694;26.994;2023-08-31T02:35:38;6.2;5.8;4.4
72918;PMS7003;68407;55.694;26.994;2023-08-31T02:40:45;8.6;5.8;4.4
72918;PMS7003;68407;55.694;26.994;2023-08-31T02:45:40;9.4;6.6;4.8
72918;PMS7003;68407;55.694;26.994;2023-08-31T02:51:18;7.6;6.4;4.8
72918;PMS7003;68407;55.694;26.994;2023-08-31T02:56:18;9.4;7.8;5.2
72918;PMS7003;68407;55.694;26.994;2023-08-31T03:01:10;6.8;6;4.8
72918;PMS7003;68407;55.694;26.994;2023-08-31T03:06:08;8.4;7;5
72918;PMS7003;68407;55.694;26.994;2023-08-31T03:10:52;7.6;6.6;5.4
72918;PMS7003;68407;55.694;26.994;2023-08-31T03:16:02;6.4;5.6;4.4
72918;PMS7003;68407;55.694;26.994;2023-08-31T03:21:18;8.4;6.8;5.6
72918;PMS7003;68407;55.694;26.994;2023-08-31T03:26:05;7.2;6.2;4.4
72918;PMS7003;68407;55.694;26.994;2023-08-31T03:30:40;8;6;4.6
72918;PMS7003;68407;55.694;26.994;2023-08-31T03:35:46;6.6;6.2;4.6
72918;PMS7003;68407;55.694;26.994;2023-08-31T03:40:52;8;6.2;4.2
72918;PMS7003;68407;55.694;26.994;2023-08-31T03:46:20;7.2;6.4;4.4
72918;PMS7003;68407;55.694;26.994;2023-08-31T03:51:20;7.6;6;4.4
72918;PMS7003;68407;55.694;26.994;2023-08-31T03:56:06;7.4;6;4.8
72918;PMS7003;68407;55.694;26.994;2023-08-31T04:00:50;9;6.6;4.8
72918;PMS7003;68407;55.694;26.994;2023-08-31T04:06:08;7.5;6.3;4.8
72918;PMS7003;68407;55.694;26.994;2023-08-31T04:11:18;7.6;5.4;4.4
72918;PMS7003;68407;55.694;26.994;2023-08-31T04:15:58;8;7;5
72918;PMS7003;68407;55.694;26.994;2023-08-31T04:20:52;8.4;7.2;5.2
72918;PMS7003;68407;55.694;26.994;2023-08-31T04:25:48;6.4;5.6;3.8
72918;PMS7003;68407;55.694;26.994;2023-08-31T04:30:39;7.6;6.4;4.6
72918;PMS7003;68407;55.694;26.994;2023-08-31T04:36:18;8.2;6.4;4.8
72918;PMS7003;68407;55.694;26.994;2023-08-31T04:41:10;8;7;5.4
72918;PMS7003;68407;55.694;26.994;2023-08-31T04:46:06;9.8;7.6;6
72918;PMS7003;68407;55.694;26.994;2023-08-31T04:50:44;6.8;6.6;4.6
72918;PMS7003;68407;55.694;26.994;2023-08-31T04:55:40;10.2;7.8;5.6
72918;PMS7003;68407;55.694;26.994;2023-08-31T05:00:48;8;7;5.2
72918;PMS7003;68407;55.694;26.994;2023-08-31T05:06:00;9;7.3;5.5
72918;PMS7003;68407;55.694;26.994;2023-08-31T05:10:38;9.6;7.2;5.6
72918;PMS7003;68407;55.694;26.994;2023-08-31T05:15:38;9.4;8;6.2
72918;PMS7003;68407;55.694;26.994;2023-08-31T05:20:44;9.4;7.2;5.8
72918;PMS7003;68407;55.694;26.994;2023-08-31T05:26:18;6.8;5.8;4.6
72918;PMS7003;68407;55.694;26.994;2023-08-31T05:31:10;9;7;6
72918;PMS7003;68407;55.694;26.994;2023-08-31T05:36:04;7.6;6;5
72918;PMS7003;68407;55.694;26.994;2023-08-31T05:40:38;7;6.4;4.8
72918;PMS7003;68407;55.694;26.994;2023-08-31T05:46:06;6.8;6;4.8
72918;PMS7003;68407;55.694;26.994;2023-08-31T05:51:18;8.2;6.6;5
72918;PMS7003;68407;55.694;26.994;2023-08-31T05:55:58;8;7.2;5.4
72918;PMS7003;68407;55.694;26.994;2023-08-31T06:00:38;8.2;7.4;5.6
72918;PMS7003;68407;55.694;26.994;2023-08-31T06:05:48;6.3;5.3;4.5
72918;PMS7003;68407;55.694;26.994;2023-08-31T06:11:10;7.2;6.6;5.2
72918;PMS7003;68407;55.694;26.994;2023-08-31T06:16:18;7.8;6;4.6
72918;PMS7003;68407;55.694;26.994;2023-08-31T06:21:10;7.4;6;4.8
72918;PMS7003;68407;55.694;26.994;2023-08-31T06:25:40;6.4;5.8;4
72918;PMS7003;68407;55.694;26.994;2023-08-31T06:30:44;6;5.2;3.8
72918;PMS7003;68407;55.694;26.994;2023-08-31T06:35:58;7;5.8;4.6
72918;PMS7003;68407;55.694;26.994;2023-08-31T06:41:18;7;5.6;4.2
72918;PMS7003;68407;55.694;26.994;2023-08-31T06:46:10;6;4.8;3.6
72918;PMS7003;68407;55.694;26.994;2023-08-31T06:50:38;6.6;4.8;3.8
72918;PMS7003;68407;55.694;26.994;2023-08-31T06:55:38;5.8;3.8;3
72918;PMS7003;68407;55.694;26.994;2023-08-31T07:01:12;5.2;4.6;3.8
72918;PMS7003;68407;55.694;26.994;2023-08-31T07:06:18;5.8;4.3;3
72918;PMS7003;68407;55.694;26.994;2023-08-31T07:11:18;5;4;3.4
72918;PMS7003;68407;55.694;26.994;2023-08-31T07:16:18;4.2;3.8;3
72918;PMS7003;68407;55.694;26.994;2023-08-31T07:20:38;4;3.8;3
72918;PMS7003;68407;55.694;26.994;2023-08-31T07:25:58;4.4;3.6;2.8
72918;PMS7003;68407;55.694;26.994;2023-08-31T07:31:18;5.2;4.8;3.6
72918;PMS7003;68407;55.694;26.994;2023-08-31T07:35:58;4.4;4;3.2
72918;PMS7003;68407;55.694;26.994;2023-08-31T07:40:44;4.4;4;3.2
72918;PMS7003;68407;55.694;26.994;2023-08-31T07:45:44;5.2;4.2;3.4
72918;PMS7003;68407;55.694;26.994;2023-08-31T07:51:18;4.2;3.4;2.6
72918;PMS7003;68407;55.694;26.994;2023-08-31T07:56:18;4.2;3.8;3
72918;PMS7003;68407;55.694;26.994;2023-08-31T08:01:18;3.4;2;2
72918;PMS7003;68407;55.694;26.994;2023-08-31T08:06:06;4;3.3;2.5
72918;PMS7003;68407;55.694;26.994;2023-08-31T08:10:44;4.2;2.8;2.2
72918;PMS7003;68407;55.694;26.994;2023-08-31T08:15:38;3.8;3.2;2.8
72918;PMS7003;68407;55.694;26.994;2023-08-31T08:21:20;4;3.4;2.8
72918;PMS7003;68407;55.694;26.994;2023-08-31T08:25:38;5;3.8;3.2
72918;PMS7003;68407;55.694;26.994;2023-08-31T08:30:54;3.4;3;2.4
72918;PMS7003;68407;55.694;26.994;2023-08-31T08:35:38;4.4;3.4;2.4
72918;PMS7003;68407;55.694;26.994;2023-08-31T08:41:18;4.6;3.6;3.2
72918;PMS7003;68407;55.694;26.994;2023-08-31T08:46:18;3.8;3.2;2.6
72918;PMS7003;68407;55.694;26.994;2023-08-31T08:51:10;4.8;3.4;2.6
72918;PMS7003;68407;55.694;26.994;2023-08-31T08:56:06;2.8;2.6;2.4
72918;PMS7003;68407;55.694;26.994;2023-08-31T09:00:50;4.6;3.2;2.6
72918;PMS7003;68407;55.694;26.994;2023-08-31T09:05:52;4.4;3.2;2.6
72918;PMS7003;68407;55.694;26.994;2023-08-31T09:11:19;3.3;2.5;2.3
72918;PMS7003;68407;55.694;26.994;2023-08-31T09:16:13;4.8;3.6;2.6
72918;PMS7003;68407;55.694;26.994;2023-08-31T09:20:50;4.4;3.4;2.8
72918;PMS7003;68407;55.694;26.994;2023-08-31T09:25:45;2.6;2.2;1.8
72918;PMS7003;68407;55.694;26.994;2023-08-31T09:31:10;2.4;1.8;1.6
72918;PMS7003;68407;55.694;26.994;2023-08-31T09:36:19;2.6;2;1.6
72918;PMS7003;68407;55.694;26.994;2023-08-31T09:41:10;3.2;2.4;2
72918;PMS7003;68407;55.694;26.994;2023-08-31T09:46:18;2.8;2.2;1.8
72918;PMS7003;68407;55.694;26.994;2023-08-31T09:50:38;2.6;2.4;1.8
72918;PMS7003;68407;55.694;26.994;2023-08-31T09:56:11;2;1.6;1.2
72918;PMS7003;68407;55.694;26.994;2023-08-31T10:01:18;2.4;2;1.4
72918;PMS7003;68407;55.694;26.994;2023-08-31T10:05:38;2;1.8;1.4
72918;PMS7003;68407;55.694;26.994;2023-08-31T10:10:38;1.8;1.5;1
72918;PMS7003;68407;55.694;26.994;2023-08-31T10:15:50;2.4;1.8;1
72918;PMS7003;68407;55.694;26.994;2023-08-31T10:20:39;2.2;1.8;1
72918;PMS7003;68407;55.694;26.994;2023-08-31T10:26:25;2.4;1.8;1.8
72918;PMS7003;68407;55.694;26.994;2023-08-31T10:31:18;2;1.8;1.2
72918;PMS7003;68407;55.694;26.994;2023-08-31T10:36:09;2.2;1.8;1.4
72918;PMS7003;68407;55.694;26.994;2023-08-31T10:41:18;1.8;1.8;1.2
72918;PMS7003;68407;55.694;26.994;2023-08-31T10:45:58;2.4;1.6;1.2
72918;PMS7003;68407;55.694;26.994;2023-08-31T10:51:00;2.4;1.6;1.4
72918;PMS7003;68407;55.694;26.994;2023-08-31T10:55:56;2.2;1.6;1.6
72918;PMS7003;68407;55.694;26.994;2023-08-31T11:00:58;2.4;2;1.6
72918;PMS7003;68407;55.694;26.994;2023-08-31T11:05:53;2;1.8;1.6
72918;PMS7003;68407;55.694;26.994;2023-08-31T11:11:08;2.8;2.3;2
72918;PMS7003;68407;55.694;26.994;2023-08-31T11:16:16;1.8;1.6;1.4
72918;PMS7003;68407;55.694;26.994;2023-08-31T11:21:02;1.8;1.6;1.4
72918;PMS7003;68407;55.694;26.994;2023-08-31T11:26:18;3;2.4;2
72918;PMS7003;68407;55.694;26.994;2023-08-31T11:31:22;2.4;2.4;2
72918;PMS7003;68407;55.694;26.994;2023-08-31T11:35:44;4;2.8;2
72918;PMS7003;68407;55.694;26.994;2023-08-31T11:41:06;3.6;2.8;2.6
72918;PMS7003;68407;55.694;26.994;2023-08-31T11:45:38;3;2.4;2.2
72918;PMS7003;68407;55.694;26.994;2023-08-31T11:50:52;2.8;2.4;2.2
72918;PMS7003;68407;55.694;26.994;2023-08-31T11:55:44;2.8;2.2;1.8
72918;PMS7003;68407;55.694;26.994;2023-08-31T12:01:02;3;2.6;2.2
72918;PMS7003;68407;55.694;26.994;2023-08-31T12:06:18;3;2.6;1.6
72918;PMS7003;68407;55.694;26.994;2023-08-31T12:11:19;3.8;3;2.5
72918;PMS7003;68407;55.694;26.994;2023-08-31T12:16:11;3.6;2.8;2.6
72918;PMS7003;68407;55.694;26.994;2023-08-31T12:21:20;3.2;2.8;2.8
72918;PMS7003;68407;55.694;26.994;2023-08-31T12:26:10;4;3.4;2.8
72918;PMS7003;68407;55.694;26.994;2023-08-31T12:31:06;4;3.2;2.6
72918;PMS7003;68407;55.694;26.994;2023-08-31T12:36:02;4.8;3.4;2.6
72918;PMS7003;68407;55.694;26.994;2023-08-31T12:40:38;4.4;3.6;2.8
72918;PMS7003;68407;55.694;26.994;2023-08-31T12:45:44;4;3.8;3
72918;PMS7003;68407;55.694;26.994;2023-08-31T12:50:39;5;4.2;3.2
72918;PMS7003;68407;55.694;26.994;2023-08-31T12:56:18;4.8;4.4;3.6
72918;PMS7003;68407;55.694;26.994;2023-08-31T13:01:19;5;4.6;3.4
72918;PMS7003;68407;55.694;26.994;2023-08-31T13:06:08;5.4;4.2;3.2
72918;PMS7003;68407;55.694;26.994;2023-08-31T13:11:20;4.5;4.3;3.3
72918;PMS7003;68407;55.694;26.994;2023-08-31T13:16:10;4.8;4;3.2
72918;PMS7003;68407;55.694;26.994;2023-08-31T13:20:49;5.4;4.8;3.8
72918;PMS7003;68407;55.694;26.994;2023-08-31T13:25:44;6.2;5.2;4.4
72918;PMS7003;68407;55.694;26.994;2023-08-31T13:30:44;4.8;4.6;4
72918;PMS7003;68407;55.694;26.994;2023-08-31T13:36:18;4.6;4;3.4
72918;PMS7003;68407;55.694;26.994;2023-08-31T13:40:38;7.8;6;4.6
72918;PMS7003;68407;55.694;26.994;2023-08-31T13:46:16;4.6;4.6;3.8
72918;PMS7003;68407;55.694;26.994;2023-08-31T13:51:02;5.8;4.4;3.4
72918;PMS7003;68407;55.694;26.994;2023-08-31T13:56:04;7;5.8;4.8
72918;PMS7003;68407;55.694;26.994;2023-08-31T14:01:19;4.8;4.6;3.4
72918;PMS7003;68407;55.694;26.994;2023-08-31T14:05:58;6.8;5.8;4.6
72918;PMS7003;68407;55.694;26.994;2023-08-31T14:11:06;7;4.8;3.5
72918;PMS7003;68407;55.694;26.994;2023-08-31T14:15:54;6.4;4.8;3.8
72918;PMS7003;68407;55.694;26.994;2023-08-31T14:20:52;6.6;5.2;4.2
72918;PMS7003;68407;55.694;26.994;2023-08-31T14:26:18;6.4;5.2;4.2
72918;PMS7003;68407;55.694;26.994;2023-08-31T14:30:38;6.4;5.8;4.8
72918;PMS7003;68407;55.694;26.994;2023-08-31T14:36:18;9.6;7.2;6.2
72918;PMS7003;68407;55.694;26.994;2023-08-31T14:41:02;8.4;7.6;5.6
72918;PMS7003;68407;55.694;26.994;2023-08-31T14:46:18;6.2;5.4;3.8
72918;PMS7003;68407;55.694;26.994;2023-08-31T14:51:18;4.4;4;3.2
72918;PMS7003;68407;55.694;26.994;2023-08-31T14:55:58;3.4;2.8;1.8
72918;PMS7003;68407;55.694;26.994;2023-08-31T15:01:18;1.2;0.4;0.2
72918;PMS7003;68407;55.694;26.994;2023-08-31T15:05:47;0.2;0;0
72918;PMS7003;68407;55.694;26.994;2023-08-31T15:11:00;0;0;0
72918;PMS7003;68407;55.694;26.994;2023-08-31T15:16:02;0;0;0
72918;PMS7003;68407;55.694;26.994;2023-08-31T15:20:39;0;0;0
72918;PMS7003;68407;55.694;26.994;2023-08-31T15:26:02;0.2;0;0
72918;PMS7003;68407;55.694;26.994;2023-08-31T15:31:02;0.4;0.2;0.2
72918;PMS7003;68407;55.694;26.994;2023-08-31T15:36:18;1;0.8;0.6
72918;PMS7003;68407;55.694;26.994;2023-08-31T15:41:18;0.2;0;0
72918;PMS7003;68407;55.694;26.994;2023-08-31T15:46:01;1.6;1.2;1.2
72918;PMS7003;68407;55.694;26.994;2023-08-31T15:51:18;2;1.8;1
72918;PMS7003;68407;55.694;26.994;2023-08-31T15:55:48;1.6;1.4;0.8
72918;PMS7003;68407;55.694;26.994;2023-08-31T16:01:12;0.6;0.4;0.2
72918;PMS7003;68407;55.694;26.994;2023-08-31T16:05:47;2;1.6;1
72918;PMS7003;68407;55.694;26.994;2023-08-31T16:10:54;1.4;1;0.8
72918;PMS7003;68407;55.694;26.994;2023-08-31T16:16:02;1.5;1.3;1
72918;PMS7003;68407;55.694;26.994;2023-08-31T16:21:02;1.8;1.6;1.2
72918;PMS7003;68407;55.694;26.994;2023-08-31T16:26:18;2.6;1.8;1.2
72918;PMS7003;68407;55.694;26.994;2023-08-31T16:31:18;2.4;2;1.4
72918;PMS7003;68407;55.694;26.994;2023-08-31T16:35:44;3.4;2.8;2.2
72918;PMS7003;68407;55.694;26.994;2023-08-31T16:41:18;3.2;2;1.8
72918;PMS7003;68407;55.694;26.994;2023-08-31T16:45:48;3.8;2.8;1.8
72918;PMS7003;68407;55.694;26.994;2023-08-31T16:50:38;2.8;2.6;2
72918;PMS7003;68407;55.694;26.994;2023-08-31T16:56:02;3.8;3;2.2
72918;PMS7003;68407;55.694;26.994;2023-08-31T17:00:54;4.2;2.8;2.4
72918;PMS7003;68407;55.694;26.994;2023-08-31T17:05:42;5.2;3.6;3
72918;PMS7003;68407;55.694;26.994;2023-08-31T17:11:03;3.4;3.4;2.6
72918;PMS7003;68407;55.694;26.994;2023-08-31T17:16:18;3.8;2.8;1.8
72918;PMS7003;68407;55.694;26.994;2023-08-31T17:21:18;3.2;2.8;2.2
72918;PMS7003;68407;55.694;26.994;2023-08-31T17:26:06;3.2;2.8;2.4
72918;PMS7003;68407;55.694;26.994;2023-08-31T17:31:16;3;2.2;1.4
72918;PMS7003;68407;55.694;26.994;2023-08-31T17:35:48;2.4;2;1.2
72918;PMS7003;68407;55.694;26.994;2023-08-31T17:40:44;3.6;2.2;1.6
72918;PMS7003;68407;55.694;26.994;2023-08-31T17:45:56;2.8;2.4;1.8
72918;PMS7003;68407;55.694;26.994;2023-08-31T17:50:54;2.6;2.2;1.2
72918;PMS7003;68407;55.694;26.994;2023-08-31T17:56:18;2.6;2.6;2
72918;PMS7003;68407;55.694;26.994;2023-08-31T18:01:02;3.6;3;2.6
72918;PMS7003;68407;55.694;26.994;2023-08-31T18:06:18;4;2.8;1.8
72918;PMS7003;68407;55.694;26.994;2023-08-31T18:11:18;3.6;3;2.2
72918;PMS7003;68407;55.694;26.994;2023-08-31T18:15:58;5.5;4.3;3
72918;PMS7003;68407;55.694;26.994;2023-08-31T18:21:04;3;2.4;1.8
72918;PMS7003;68407;55.694;26.994;2023-08-31T18:25:54;3.2;2.6;2
72918;PMS7003;68407;55.694;26.994;2023-08-31T18:30:50;4.8;3.2;2.2
72918;PMS7003;68407;55.694;26.994;2023-08-31T18:36:02;3.6;2.8;2
72918;PMS7003;68407;55.694;26.994;2023-08-31T18:40:54;3.8;3.2;2.6
72918;PMS7003;68407;55.694;26.994;2023-08-31T18:45:50;4.2;2.8;2
72918;PMS7003;68407;55.694;26.994;2023-08-31T18:51:02;3.2;2.8;2
72918;PMS7003;68407;55.694;26.994;2023-08-31T18:56:18;3.8;3.2;2.2
72918;PMS7003;68407;55.694;26.994;2023-08-31T19:01:18;3.6;2.6;1.6
72918;PMS7003;68407;55.694;26.994;2023-08-31T19:06:10;3;2.4;1.4
72918;PMS7003;68407;55.694;26.994;2023-08-31T19:10:38;4.4;3;2.4
72918;PMS7003;68407;55.694;26.994;2023-08-31T19:15:38;4.3;3.5;2.3
72918;PMS7003;68407;55.694;26.994;2023-08-31T19:20:38;3.4;2.6;2
72918;PMS7003;68407;55.694;26.994;2023-08-31T19:26:18;4;3;2.4
72918;PMS7003;68407;55.694;26.994;2023-08-31T19:30:54;4;2;1.2
72918;PMS7003;68407;55.694;26.994;2023-08-31T19:36:18;3.4;3;2
72918;PMS7003;68407;55.694;26.994;2023-08-31T19:41:02;4;3;2.2
72918;PMS7003;68407;55.694;26.994;2023-08-31T19:45:50;3;2.6;1.6
72918;PMS7003;68407;55.694;26.994;2023-08-31T19:51:18;3.6;2.4;1.6
72918;PMS7003;68407;55.694;26.994;2023-08-31T19:56:08;3.4;2;1.6
72918;PMS7003;68407;55.694;26.994;2023-08-31T20:00:58;2.6;2.4;1.6
72918;PMS7003;68407;55.694;26.994;2023-08-31T20:05:50;3.6;2.8;1.8
72918;PMS7003;68407;55.694;26.994;2023-08-31T20:10:38;3.2;2.2;1.2
72918;PMS7003;68407;55.694;26.994;2023-08-31T20:16:18;3.6;3;2.2
72918;PMS7003;68407;55.694;26.994;2023-08-31T20:20:54;3.5;2.3;1.3
72918;PMS7003;68407;55.694;26.994;2023-08-31T20:25:50;3.6;2.4;1.8
72918;PMS7003;68407;55.694;26.994;2023-08-31T20:31:02;3.4;2.2;1.4
72918;PMS7003;68407;55.694;26.994;2023-08-31T20:35:46;2.6;2.2;1.6
72918;PMS7003;68407;55.694;26.994;2023-08-31T20:41:20;3;1.6;1.2
72918;PMS7003;68407;55.694;26.994;2023-08-31T20:46:03;2.6;1.8;1.2
72918;PMS7003;68407;55.694;26.994;2023-08-31T20:50:38;2.8;2.2;1.8
72918;PMS7003;68407;55.694;26.994;2023-08-31T20:55:38;3.2;2.4;1.8
72918;PMS7003;68407;55.694;26.994;2023-08-31T21:00:38;3.6;3;2.2
72918;PMS7003;68407;55.694;26.994;2023-08-31T21:06:18;2.5;2.5;1.8
72918;PMS7003;68407;55.694;26.994;2023-08-31T21:11:18;4.6;3;2
72918;PMS7003;68407;55.694;26.994;2023-08-31T21:15:53;3.6;2.8;2
72918;PMS7003;68407;55.694;26.994;2023-08-31T21:21:02;4.6;3.4;2.2
72918;PMS7003;68407;55.694;26.994;2023-08-31T21:25:59;3.6;2.8;2
72918;PMS7003;68407;55.694;26.994;2023-08-31T21:31:18;4.8;3.6;2.4
72918;PMS7003;68407;55.694;26.994;2023-08-31T21:36:10;3.6;3;2
72918;PMS7003;68407;55.694;26.994;2023-08-31T21:40:50;3.8;2.8;2.2
72918;PMS7003;68407;55.694;26.994;2023-08-31T21:46:20;3;3;2.4
72918;PMS7003;68407;55.694;26.994;2023-08-31T21:50:52;3.5;2.5;2
72918;PMS7003;68407;55.694;26.994;2023-08-31T21:56:18;5.2;3.2;2.8
72918;PMS7003;68407;55.694;26.994;2023-08-31T22:00:38;4.8;3.8;3
72918;PMS7003;68407;55.694;26.994;2023-08-31T22:05:50;4.6;2.8;1.8
72918;PMS7003;68407;55.694;26.994;2023-08-31T22:11:02;3;2.8;2
72918;PMS7003;68407;55.694;26.994;2023-08-31T22:15:38;3.4;3.2;2.2
72918;PMS7003;68407;55.694;26.994;2023-08-31T22:21:18;4.4;3.4;2
72918;PMS7003;68407;55.694;26.994;2023-08-31T22:26:04;3.2;2.8;2.2
72918;PMS7003;68407;55.694;26.994;2023-08-31T22:30:44;3.6;2.2;1.8
72918;PMS7003;68407;55.694;26.994;2023-08-31T22:35:38;3.2;2.2;1.2
72918;PMS7003;68407;55.694;26.994;2023-08-31T22:40:44;2.2;1.4;1
72918;PMS7003;68407;55.694;26.994;2023-08-31T22:46:18;2.2;1.4;0.8
72918;PMS7003;68407;55.694;26.994;2023-08-31T22:50:38;2.6;1.6;1.2
72918;PMS7003;68407;55.694;26.994;2023-08-31T22:55:50;2.5;1.5;0.8
72918;PMS7003;68407;55.694;26.994;2023-08-31T23:01:02;1.8;1.2;0.8
72918;PMS7003;68407;55.694;26.994;2023-08-31T23:06:16;1.4;0.8;0.6
72918;PMS7003;68407;55.694;26.994;2023-08-31T23:11:16;2;0.8;0.4
72918;PMS7003;68407;55.694;26.994;2023-08-31T23:15:46;3;1.6;1
72918;PMS7003;68407;55.694;26.994;2023-08-31T23:20:40;1.8;1.6;1
72918;PMS7003;68407;55.694;26.994;2023-08-31T23:25:40;2.4;2;1
72918;PMS7003;68407;55.694;26.994;2023-08-31T23:30:44;2.4;1.4;0.8
72918;PMS7003;68407;55.694;26.994;2023-08-31T23:36:18;1.8;0.8;0.6
72918;PMS7003;68407;55.694;26.994;2023-08-31T23:40:55;2.6;1.4;1.2
72918;PMS7003;68407;55.694;26.994;2023-08-31T23:45:50;2.2;1.4;1
72918;PMS7003;68407;55.694;26.994;2023-08-31T23:51:02;2.2;2;1.6
72918;PMS7003;68407;55.694;26.994;2023-08-31T23:56:10;1.8;1.5;1.3
